Knutsford, United Kingdom
Current Conditions -  °F | °C
As of 7:50 AM on Tuesday 27 Jan 2015 (Local Time) from EGCC Reporting Station
Drizzle Drizzle  
Wind Chill: 37°   Ceiling: 1200
Heat Index: 43°   Visibility: 6mi
Dew Point: 41°   Wind: 10mph
Humidity: 93%   Direction: 270°W
Pressure: 30.3"   Gusts: NA
Location:  53.3°N, 2.37°W
Report Text: EGCC 270750Z 27009KT 9999 5000E -DZ FEW004 BKN012 06/05 Q1026 TEMPO BKN008
Loading
Personal Weather Stations






























Interactive Weather Map New forecast layout! Learn more

10-Day Weather Forecast

Advertisements
Track Severe Weather on mobile